createdAt,value
2018-06-07T00:01:54.547Z,17.60
2018-06-07T00:04:22.467Z,16.27
2018-06-07T00:06:50.381Z,18.13
2018-06-07T00:09:18.254Z,19.43
2018-06-07T00:11:46.105Z,26.33
2018-06-07T00:14:14.218Z,19.20
2018-06-07T00:16:41.997Z,16.70
2018-06-07T00:19:09.920Z,17.30
2018-06-07T00:21:37.823Z,20.80
2018-06-07T00:24:05.743Z,18.57
2018-06-07T00:26:33.827Z,19.07
2018-06-07T00:29:02.027Z,19.97
2018-06-07T00:31:29.959Z,22.70
2018-06-07T00:33:57.858Z,19.63
2018-06-07T00:36:25.789Z,19.73
2018-06-07T00:38:53.658Z,19.67
2018-06-07T00:41:21.548Z,17.53
2018-06-07T00:43:49.415Z,20.33
2018-06-07T00:46:17.209Z,19.00
2018-06-07T00:48:45.139Z,16.00
2018-06-07T00:51:13.652Z,19.23
2018-06-07T00:53:41.580Z,16.80
2018-06-07T00:56:20.036Z,17.30
2018-06-07T00:58:47.932Z,13.90
2018-06-07T01:01:15.821Z,16.83
2018-06-07T01:03:43.727Z,15.67
2018-06-07T01:06:11.651Z,12.20
2018-06-07T01:08:39.554Z,16.83
2018-06-07T01:11:07.486Z,12.40
2018-06-07T01:13:35.366Z,30.23
2018-06-07T01:16:03.265Z,18.63
2018-06-07T01:18:31.035Z,13.43
2018-06-07T01:20:58.966Z,18.87
2018-06-07T01:23:26.852Z,14.80
2018-06-07T01:25:54.855Z,15.67
2018-06-07T01:28:23.528Z,14.40
2018-06-07T01:31:58.759Z,13.47
2018-06-07T01:34:26.660Z,17.23
2018-06-07T01:36:54.702Z,10.80
2018-06-07T01:39:22.612Z,16.10
2018-06-07T01:41:51.170Z,11.30
2018-06-07T01:44:18.882Z,13.73
2018-06-07T01:46:46.745Z,10.40
2018-06-07T01:49:14.650Z,19.93
2018-06-07T01:51:42.539Z,14.80
2018-06-07T01:54:10.728Z,16.43
2018-06-07T01:56:38.652Z,10.77
2018-06-07T01:59:06.530Z,13.83
2018-06-07T02:01:34.405Z,12.10
2018-06-07T02:04:02.277Z,17.70
2018-06-07T02:06:30.175Z,18.80
2018-06-07T02:08:58.058Z,11.73
2018-06-07T02:11:25.927Z,12.73
2018-06-07T02:13:53.816Z,12.07
2018-06-07T02:16:21.722Z,14.10
2018-06-07T02:18:50.386Z,16.60
2018-06-07T02:21:18.139Z,14.93
2018-06-07T02:23:46.212Z,15.27
2018-06-07T02:26:14.062Z,12.13
2018-06-07T02:28:41.934Z,13.50
2018-06-07T02:31:09.807Z,15.00
2018-06-07T02:33:38.545Z,17.33
2018-06-07T02:36:06.435Z,17.30
2018-06-07T02:38:34.962Z,14.57
2018-06-07T02:41:02.864Z,11.97
2018-06-07T02:43:30.806Z,10.33
2018-06-07T02:45:59.380Z,14.23
2018-06-07T02:48:28.094Z,9.87
2018-06-07T02:50:56.003Z,11.63
2018-06-07T02:53:24.095Z,16.47
2018-06-07T02:55:51.828Z,14.10
2018-06-07T02:58:19.708Z,13.33
2018-06-07T03:00:47.923Z,16.33
2018-06-07T03:03:15.804Z,8.03
2018-06-07T03:05:43.677Z,8.50
2018-06-07T03:08:11.934Z,11.07
2018-06-07T03:10:39.685Z,10.63
2018-06-07T03:13:07.413Z,11.37
2018-06-07T03:15:35.282Z,11.73
2018-06-07T03:18:03.142Z,14.60
2018-06-07T03:20:31.054Z,9.80
2018-06-07T03:22:58.803Z,13.10
2018-06-07T03:25:26.676Z,13.33
2018-06-07T03:27:54.433Z,15.23
2018-06-07T03:30:22.480Z,24.80
2018-06-07T03:32:50.347Z,13.90
2018-06-07T03:35:18.375Z,24.40
2018-06-07T03:37:46.264Z,9.43
2018-06-07T03:40:14.213Z,11.17
2018-06-07T03:42:41.918Z,12.27
2018-06-07T03:45:09.842Z,18.17
2018-06-07T03:47:37.713Z,9.37
2018-06-07T03:50:05.578Z,11.17
2018-06-07T03:52:33.299Z,10.80
2018-06-07T03:55:01.151Z,7.47
2018-06-07T03:57:30.199Z,13.63
2018-06-07T03:59:58.080Z,12.33
2018-06-07T04:02:26.830Z,10.80
2018-06-07T04:04:54.689Z,13.50
2018-06-07T04:07:22.572Z,9.80
2018-06-07T04:09:51.103Z,11.97
2018-06-07T04:12:18.984Z,8.60
2018-06-07T04:14:46.915Z,15.77
2018-06-07T04:17:15.503Z,15.23
2018-06-07T04:19:43.371Z,8.97
2018-06-07T04:22:11.261Z,12.47
2018-06-07T04:24:39.603Z,14.97
2018-06-07T04:27:07.448Z,13.60
2018-06-07T04:29:35.171Z,12.60
2018-06-07T04:32:03.089Z,8.13
2018-06-07T04:34:30.814Z,17.33
2018-06-07T04:36:58.728Z,14.13
2018-06-07T04:39:26.453Z,11.30
2018-06-07T04:41:54.331Z,12.73
2018-06-07T04:44:22.200Z,9.07
2018-06-07T04:46:50.105Z,8.23
2018-06-07T04:49:17.970Z,13.93
2018-06-07T04:51:45.975Z,8.80
2018-06-07T04:54:13.861Z,13.20
2018-06-07T04:56:42.183Z,8.93
2018-06-07T04:59:10.252Z,12.57
2018-06-07T05:01:38.128Z,8.50
2018-06-07T05:04:06.402Z,22.73
2018-06-07T05:06:34.300Z,9.80
2018-06-07T05:09:03.453Z,11.47
2018-06-07T05:11:31.338Z,11.03
2018-06-07T05:13:59.237Z,7.27
2018-06-07T05:16:27.119Z,18.27
2018-06-07T05:18:55.339Z,12.17
2018-06-07T05:21:23.201Z,11.30
2018-06-07T05:23:51.073Z,9.60
2018-06-07T05:26:18.960Z,11.13
2018-06-07T05:28:46.823Z,14.10
2018-06-07T05:31:14.686Z,13.63
2018-06-07T05:33:42.550Z,12.40
2018-06-07T05:36:10.488Z,11.70
2018-06-07T05:38:38.345Z,11.10
2018-06-07T05:41:06.538Z,9.33
2018-06-07T05:43:34.420Z,10.17
2018-06-07T05:46:02.759Z,10.03
2018-06-07T05:48:30.758Z,9.37
2018-06-07T05:50:58.687Z,13.40
2018-06-07T05:53:26.417Z,13.03
2018-06-07T05:55:54.665Z,8.43
2018-06-07T05:58:23.250Z,13.67
2018-06-07T06:00:51.171Z,9.27
2018-06-07T06:03:19.163Z,10.67
2018-06-07T06:05:47.068Z,11.30
2018-06-07T06:08:14.956Z,9.10
2018-06-07T06:10:43.667Z,10.33
2018-06-07T06:13:11.660Z,12.07
2018-06-07T06:15:39.433Z,15.07
2018-06-07T06:18:07.208Z,12.20
2018-06-07T06:20:35.165Z,9.90
2018-06-07T06:23:02.919Z,13.53
2018-06-07T06:25:30.791Z,14.10
2018-06-07T06:27:59.317Z,9.87
2018-06-07T06:30:27.296Z,21.87
2018-06-07T06:32:55.322Z,14.80
2018-06-07T06:35:23.058Z,12.33
2018-06-07T06:38:55.291Z,13.77
2018-06-07T06:41:23.124Z,9.93
2018-06-07T06:43:51.041Z,13.10
2018-06-07T06:46:18.989Z,21.27
2018-06-07T06:48:46.866Z,11.73
2018-06-07T06:51:14.770Z,16.33
2018-06-07T06:53:42.626Z,18.90
2018-06-07T06:56:10.502Z,16.87
2018-06-07T06:58:38.425Z,15.30
2018-06-07T07:01:06.352Z,19.13
2018-06-07T07:03:35.056Z,14.63
2018-06-07T07:06:02.975Z,18.13
2018-06-07T07:08:30.906Z,20.87
2018-06-07T07:10:58.792Z,14.63
2018-06-07T07:13:27.217Z,16.53
2018-06-07T07:15:55.092Z,16.57
2018-06-07T07:18:23.185Z,14.20
2018-06-07T07:20:50.906Z,11.43
2018-06-07T07:23:19.093Z,12.77
2018-06-07T07:25:47.004Z,17.60
2018-06-07T07:28:14.712Z,20.33
2018-06-07T07:30:42.567Z,22.90
2018-06-07T07:33:10.446Z,19.17
2018-06-07T07:35:38.333Z,21.50
2018-06-07T07:38:06.344Z,20.13
2018-06-07T07:40:34.408Z,22.83
2018-06-07T07:43:02.285Z,16.20
2018-06-07T07:45:30.170Z,15.40
2018-06-07T07:47:58.245Z,14.73
2018-06-07T07:50:26.134Z,25.03
2018-06-07T07:52:54.012Z,23.60
2018-06-07T07:55:21.890Z,26.33
2018-06-07T07:57:49.757Z,21.57
2018-06-07T08:00:17.482Z,18.07
2018-06-07T08:02:45.347Z,20.03
2018-06-07T08:05:13.556Z,22.20
2018-06-07T08:07:41.317Z,16.70
2018-06-07T08:10:09.517Z,20.77
2018-06-07T08:12:37.394Z,22.97
2018-06-07T08:15:05.467Z,15.97
2018-06-07T08:17:33.363Z,21.30
2018-06-07T08:20:02.216Z,19.63
2018-06-07T08:22:30.689Z,22.83
2018-06-07T08:24:58.445Z,24.93
2018-06-07T08:27:26.380Z,22.90
2018-06-07T08:29:54.988Z,23.57
2018-06-07T08:32:22.862Z,28.37
2018-06-07T08:34:50.589Z,29.17
2018-06-07T08:37:18.610Z,22.60
2018-06-07T08:39:47.100Z,23.63
2018-06-07T08:42:15.281Z,25.80
2018-06-07T08:44:43.659Z,20.33
2018-06-07T08:47:12.417Z,25.43
2018-06-07T08:49:40.938Z,25.23
2018-06-07T08:52:08.996Z,22.90
2018-06-07T08:54:37.779Z,22.33
2018-06-07T08:57:05.707Z,22.73
2018-06-07T08:59:34.316Z,24.07
2018-06-07T09:02:03.036Z,22.20
2018-06-07T09:04:31.585Z,22.50
2018-06-07T09:07:00.423Z,20.23
2018-06-07T09:09:28.248Z,27.07
2018-06-07T09:11:56.022Z,24.33
2018-06-07T09:14:23.896Z,24.90
2018-06-07T09:16:51.872Z,24.33
2018-06-07T09:19:19.745Z,19.43
2018-06-07T09:21:47.810Z,24.20
2018-06-07T09:24:15.723Z,21.83
2018-06-07T09:26:43.606Z,23.60
2018-06-07T09:29:11.484Z,23.43
2018-06-07T09:31:39.360Z,23.30
2018-06-07T09:34:07.230Z,20.30
2018-06-07T09:36:34.975Z,23.53
2018-06-07T09:39:03.692Z,27.57
2018-06-07T09:41:31.630Z,23.10
2018-06-07T09:43:59.827Z,22.20
2018-06-07T09:46:27.563Z,22.93
2018-06-07T09:48:55.321Z,21.73
2018-06-07T09:51:23.062Z,19.70
2018-06-07T09:53:50.915Z,22.07
2018-06-07T09:56:18.777Z,25.03
2018-06-07T09:58:46.619Z,25.13
2018-06-07T10:01:14.585Z,23.40
2018-06-07T10:03:43.625Z,19.93
2018-06-07T10:06:11.545Z,19.17
2018-06-07T10:08:39.326Z,26.17
2018-06-07T10:11:07.299Z,19.80
2018-06-07T10:13:35.162Z,21.93
2018-06-07T10:16:03.940Z,20.83
2018-06-07T10:18:31.819Z,22.23
2018-06-07T10:21:00.084Z,23.57
2018-06-07T10:23:28.121Z,21.60
2018-06-07T10:25:55.995Z,19.00
2018-06-07T10:28:24.523Z,23.33
2018-06-07T10:30:57.493Z,25.17
2018-06-07T10:33:25.225Z,19.47
2018-06-07T10:35:53.111Z,18.73
2018-06-07T10:38:20.855Z,16.53
2018-06-07T10:40:48.719Z,18.50
2018-06-07T10:43:16.950Z,21.83
2018-06-07T10:45:44.846Z,18.73
2018-06-07T10:48:13.096Z,17.03
2018-06-07T10:50:40.977Z,23.23
2018-06-07T10:53:08.860Z,17.10
2018-06-07T10:55:36.772Z,20.33
2018-06-07T10:58:04.525Z,20.83
2018-06-07T11:00:32.394Z,17.60
2018-06-07T11:03:00.115Z,20.23
2018-06-07T11:05:27.970Z,18.63
2018-06-07T11:07:56.217Z,15.83
2018-06-07T11:10:24.353Z,17.67
2018-06-07T11:12:52.205Z,17.40
2018-06-07T11:15:20.069Z,18.43
2018-06-07T11:17:48.405Z,27.97
2018-06-07T11:20:16.277Z,22.40
2018-06-07T11:22:44.160Z,26.60
2018-06-07T11:25:12.619Z,17.87
2018-06-07T11:27:40.349Z,16.27
2018-06-07T11:30:08.228Z,19.17
2018-06-07T11:32:36.104Z,15.00
2018-06-07T11:35:03.833Z,18.33
2018-06-07T11:37:32.980Z,19.13
2018-06-07T11:40:00.849Z,20.93
2018-06-07T11:42:28.703Z,14.40
2018-06-07T11:44:56.502Z,26.43
2018-06-07T11:47:24.369Z,27.07
2018-06-07T11:49:52.283Z,18.10
2018-06-07T11:52:20.892Z,23.00
2018-06-07T11:54:48.808Z,19.20
2018-06-07T11:57:16.658Z,18.43
2018-06-07T11:59:45.429Z,19.43
2018-06-07T12:02:13.314Z,16.90
2018-06-07T12:04:41.228Z,25.53
2018-06-07T12:07:09.101Z,22.30
2018-06-07T12:09:37.085Z,19.20
2018-06-07T12:12:05.132Z,17.03
2018-06-07T12:14:33.018Z,21.40
2018-06-07T12:17:00.759Z,19.23
2018-06-07T12:19:28.633Z,18.23
2018-06-07T12:21:56.507Z,19.40
2018-06-07T12:24:24.255Z,19.43
2018-06-07T12:26:52.213Z,25.83
2018-06-07T12:29:21.892Z,26.20
2018-06-07T12:31:49.818Z,17.47
2018-06-07T12:34:17.574Z,21.07
2018-06-07T12:36:45.617Z,23.13
2018-06-07T12:39:14.308Z,24.27
2018-06-07T12:41:42.174Z,17.40
2018-06-07T12:44:10.081Z,19.07
2018-06-07T12:46:38.424Z,18.57
2018-06-07T12:49:06.330Z,17.40
2018-06-07T12:51:34.048Z,19.80
2018-06-07T12:54:02.120Z,17.00
2018-06-07T12:56:29.970Z,20.30
2018-06-07T12:58:58.437Z,15.97
2018-06-07T13:01:26.326Z,20.50
2018-06-07T13:03:55.152Z,26.13
2018-06-07T13:06:23.048Z,20.97
2018-06-07T13:08:51.103Z,19.30
2018-06-07T13:11:18.993Z,18.67
2018-06-07T13:13:46.953Z,19.63
2018-06-07T13:16:15.058Z,17.00
2018-06-07T13:18:42.947Z,14.80
2018-06-07T13:21:10.851Z,21.03
2018-06-07T13:23:38.712Z,25.47
2018-06-07T13:26:06.627Z,18.87
2018-06-07T13:28:34.508Z,21.73
2018-06-07T13:31:02.422Z,22.20
2018-06-07T13:33:30.270Z,18.20
2018-06-07T13:35:58.118Z,19.13
2018-06-07T13:38:25.982Z,20.53
2018-06-07T13:40:54.695Z,17.57
2018-06-07T13:43:22.539Z,13.73
2018-06-07T13:45:50.378Z,16.60
2018-06-07T13:48:18.253Z,21.80
2018-06-07T13:50:46.164Z,20.40
2018-06-07T13:53:14.039Z,20.60
2018-06-07T13:55:41.781Z,19.80
2018-06-07T13:58:09.688Z,17.67
2018-06-07T14:00:38.217Z,14.80
2018-06-07T14:03:06.781Z,17.90
2018-06-07T14:05:35.424Z,18.80
2018-06-07T14:08:03.174Z,15.63
2018-06-07T14:10:31.294Z,14.17
2018-06-07T14:12:59.176Z,19.03
2018-06-07T14:15:27.041Z,14.70
2018-06-07T14:17:55.639Z,18.47
2018-06-07T14:20:23.525Z,16.67
2018-06-07T14:22:52.194Z,21.33
2018-06-07T14:25:20.107Z,17.87
2018-06-07T14:27:48.608Z,23.57
2018-06-07T14:30:17.328Z,14.47
2018-06-07T14:32:45.194Z,14.83
2018-06-07T14:35:13.336Z,15.33
2018-06-07T14:37:41.235Z,18.10
2018-06-07T14:40:09.112Z,14.87
2018-06-07T14:42:36.970Z,17.43
2018-06-07T14:45:04.874Z,20.53
2018-06-07T14:47:33.351Z,19.03
2018-06-07T14:50:01.202Z,13.33
2018-06-07T14:52:29.102Z,15.07
2018-06-07T14:54:56.854Z,17.10
2018-06-07T14:57:25.179Z,17.10
2018-06-07T14:59:53.074Z,17.83
2018-06-07T15:02:20.942Z,13.43
2018-06-07T15:04:48.819Z,15.23
2018-06-07T15:07:16.675Z,14.20
2018-06-07T15:09:45.115Z,14.67
2018-06-07T15:12:12.829Z,18.20
2018-06-07T15:14:40.992Z,22.53
2018-06-07T15:17:08.981Z,17.00
2018-06-07T15:19:42.493Z,15.30
2018-06-07T15:22:10.263Z,19.90
2018-06-07T15:24:38.132Z,14.40
2018-06-07T15:27:06.080Z,14.10
2018-06-07T15:29:33.831Z,12.57
2018-06-07T15:32:01.692Z,21.30
2018-06-07T15:34:29.586Z,17.87
2018-06-07T15:36:57.457Z,19.63
2018-06-07T15:39:25.573Z,15.00
2018-06-07T15:41:53.461Z,19.20
2018-06-07T15:44:21.396Z,15.13
2018-06-07T15:46:49.283Z,18.23
2018-06-07T15:49:17.141Z,12.30
2018-06-07T15:51:45.124Z,15.63
2018-06-07T15:54:13.311Z,14.53
2018-06-07T15:56:41.213Z,19.40
2018-06-07T15:59:09.108Z,15.13
2018-06-07T16:01:39.267Z,16.30
2018-06-07T16:04:07.205Z,12.10
2018-06-07T16:06:35.391Z,20.00
2018-06-07T16:09:05.511Z,18.60
2018-06-07T16:11:33.776Z,15.40
2018-06-07T16:14:02.218Z,16.30
2018-06-07T16:16:30.524Z,13.13
2018-06-07T16:18:58.497Z,16.40
2018-06-07T16:21:26.346Z,18.50
2018-06-07T16:23:54.202Z,14.40
2018-06-07T16:26:22.082Z,19.10
2018-06-07T16:28:49.906Z,17.63
2018-06-07T16:31:17.737Z,20.70
2018-06-07T16:33:45.629Z,17.53
2018-06-07T16:36:14.371Z,15.13
2018-06-07T16:38:42.145Z,19.00
2018-06-07T16:41:12.132Z,14.47
2018-06-07T16:43:40.048Z,15.50
2018-06-07T16:46:07.972Z,15.07
2018-06-07T16:48:35.855Z,16.63
2018-06-07T16:53:39.143Z,12.57
2018-06-07T16:56:07.104Z,13.87
2018-06-07T16:58:35.196Z,15.63
2018-06-07T17:01:04.035Z,28.23
2018-06-07T17:03:31.917Z,17.23
2018-06-07T17:06:00.022Z,19.00
2018-06-07T17:08:28.200Z,14.23
2018-06-07T17:10:56.148Z,18.40
2018-06-07T17:13:24.041Z,17.13
2018-06-07T17:15:51.975Z,29.50
2018-06-07T17:18:19.855Z,16.40
2018-06-07T17:20:48.041Z,18.90
2018-06-07T17:23:15.952Z,15.00
2018-06-07T17:25:44.016Z,13.87
2018-06-07T17:28:11.890Z,14.13
2018-06-07T17:30:40.065Z,15.70
2018-06-07T17:33:08.187Z,15.43
2018-06-07T17:35:36.297Z,19.03
2018-06-07T17:38:04.318Z,16.63
2018-06-07T17:40:32.251Z,16.53
2018-06-07T17:43:00.140Z,18.17
2018-06-07T17:45:28.047Z,18.70
2018-06-07T17:47:55.979Z,19.77
2018-06-07T17:50:23.826Z,19.10
2018-06-07T17:52:51.752Z,19.30
2018-06-07T17:55:19.702Z,17.00
2018-06-07T17:57:47.611Z,22.67
2018-06-07T18:00:15.631Z,21.20
2018-06-07T18:02:44.009Z,16.80
2018-06-07T18:05:13.447Z,16.97
2018-06-07T18:07:41.209Z,15.90
2018-06-07T18:10:09.092Z,18.80
2018-06-07T18:12:36.979Z,18.80
2018-06-07T18:15:05.734Z,16.63
2018-06-07T18:17:33.887Z,17.23
2018-06-07T18:20:01.913Z,18.93
2018-06-07T18:22:31.347Z,24.43
2018-06-07T18:24:59.270Z,19.00
2018-06-07T18:27:27.187Z,14.87
2018-06-07T18:29:55.993Z,27.43
2018-06-07T18:32:24.602Z,21.90
2018-06-07T18:34:52.786Z,17.53
2018-06-07T18:37:21.516Z,28.73
2018-06-07T18:39:49.440Z,21.03
2018-06-07T18:42:17.983Z,19.23
2018-06-07T18:44:46.071Z,27.23
2018-06-07T18:47:14.530Z,25.53
2018-06-07T18:49:42.661Z,21.83
2018-06-07T18:52:11.257Z,25.60
2018-06-07T18:54:39.664Z,21.13
2018-06-07T18:57:07.746Z,19.73
2018-06-07T18:59:36.153Z,20.00
2018-06-07T19:02:04.857Z,28.90
2018-06-07T19:04:32.785Z,22.20
2018-06-07T19:07:00.879Z,22.30
2018-06-07T19:09:34.315Z,36.70
2018-06-07T19:12:02.185Z,25.40
2018-06-07T19:14:35.760Z,26.03
2018-06-07T19:17:03.535Z,25.10
2018-06-07T19:19:39.395Z,30.40
2018-06-07T19:22:07.455Z,27.80
2018-06-07T19:24:35.509Z,29.90
2018-06-07T19:27:09.010Z,23.47
2018-06-07T19:29:36.774Z,20.70
2018-06-07T19:32:11.289Z,25.17
2018-06-07T19:34:45.808Z,22.97
2018-06-07T19:37:14.110Z,38.00
2018-06-07T19:39:48.398Z,34.33
2018-06-07T19:42:16.597Z,20.93
2018-06-07T19:44:45.196Z,22.23
2018-06-07T19:47:15.349Z,23.70
2018-06-07T19:49:43.283Z,23.47
2018-06-07T19:52:11.332Z,22.50
2018-06-07T19:54:39.290Z,23.83
2018-06-07T19:57:07.633Z,27.17
2018-06-07T19:59:35.563Z,27.57
2018-06-07T20:02:03.520Z,30.57
2018-06-07T20:04:32.493Z,30.00
2018-06-07T20:07:00.413Z,20.30
2018-06-07T20:09:28.302Z,26.23
2018-06-07T20:11:56.216Z,23.50
2018-06-07T20:14:24.049Z,20.03
2018-06-07T20:16:51.883Z,20.43
2018-06-07T20:19:20.229Z,19.97
2018-06-07T20:21:47.977Z,20.00
2018-06-07T20:24:15.748Z,21.63
2018-06-07T20:26:43.523Z,19.00
2018-06-07T20:29:11.305Z,26.83
2018-06-07T20:31:39.254Z,24.13
2018-06-07T20:34:07.151Z,23.20
2018-06-07T20:36:35.102Z,22.90
2018-06-07T20:39:04.187Z,26.83
2018-06-07T20:41:31.974Z,24.20
2018-06-07T20:43:59.877Z,29.03
2018-06-07T20:46:28.118Z,22.27
2018-06-07T20:48:56.044Z,24.27
2018-06-07T20:51:24.814Z,24.10
2018-06-07T20:53:52.690Z,22.43
2018-06-07T20:56:20.613Z,29.03
2018-06-07T20:58:48.534Z,23.50
2018-06-07T21:01:16.467Z,24.83
2018-06-07T21:03:44.461Z,23.63
2018-06-07T21:06:12.417Z,31.37
2018-06-07T21:08:40.532Z,27.70
2018-06-07T21:11:08.334Z,25.37
2018-06-07T21:13:36.044Z,27.23
2018-06-07T21:16:03.941Z,32.63
2018-06-07T21:18:32.117Z,27.03
2018-06-07T21:21:00.095Z,28.37
2018-06-07T21:23:28.318Z,28.60
2018-06-07T21:25:56.206Z,24.60
2018-06-07T21:28:23.992Z,32.57
2018-06-07T21:30:51.975Z,24.70
2018-06-07T21:33:19.907Z,26.03
2018-06-07T21:35:48.009Z,27.20
2018-06-07T21:38:16.099Z,27.43
2018-06-07T21:40:44.116Z,25.27
2018-06-07T21:43:12.093Z,24.17
2018-06-07T21:45:39.987Z,25.87
2018-06-07T21:48:07.761Z,25.93
2018-06-07T21:50:35.625Z,27.63
2018-06-07T21:53:03.543Z,25.97
2018-06-07T21:55:31.447Z,25.90
2018-06-07T21:57:59.361Z,28.30
2018-06-07T22:00:27.259Z,28.30
2018-06-07T22:02:55.141Z,32.47
2018-06-07T22:05:22.878Z,28.87
2018-06-07T22:07:50.743Z,25.67
2018-06-07T22:10:18.642Z,24.93
2018-06-07T22:12:46.377Z,26.90
2018-06-07T22:15:14.323Z,22.23
2018-06-07T22:17:42.268Z,27.50
2018-06-07T22:20:10.162Z,22.13
2018-06-07T22:22:38.044Z,25.43
2018-06-07T22:25:05.964Z,23.10
2018-06-07T22:27:33.880Z,21.90
2018-06-07T22:30:01.776Z,22.30
2018-06-07T22:32:29.711Z,23.13
2018-06-07T22:34:57.610Z,27.00
2018-06-07T22:37:25.380Z,19.40
2018-06-07T22:39:53.145Z,23.20
2018-06-07T22:42:20.905Z,27.80
2018-06-07T22:44:49.201Z,29.03
2018-06-07T22:47:17.091Z,25.47
2018-06-07T22:49:44.975Z,33.37
2018-06-07T22:52:12.848Z,28.23
2018-06-07T22:54:40.758Z,23.60
2018-06-07T22:57:08.765Z,23.20
2018-06-07T22:59:36.661Z,25.17
2018-06-07T23:02:04.626Z,26.30
2018-06-07T23:04:32.523Z,29.63
2018-06-07T23:07:00.284Z,24.00
2018-06-07T23:09:28.198Z,24.47
2018-06-07T23:11:56.080Z,25.40
2018-06-07T23:14:23.954Z,27.43
2018-06-07T23:16:51.878Z,29.17
2018-06-07T23:19:19.793Z,22.70
2018-06-07T23:21:47.533Z,29.17
2018-06-07T23:24:15.296Z,26.20
2018-06-07T23:26:43.182Z,27.67
2018-06-07T23:29:11.083Z,27.33
2018-06-07T23:31:38.963Z,25.87
2018-06-07T23:34:06.730Z,26.23
2018-06-07T23:36:34.818Z,24.63
2018-06-07T23:39:02.981Z,29.70
2018-06-07T23:41:30.821Z,29.97
2018-06-07T23:43:58.708Z,23.43
2018-06-07T23:46:26.501Z,29.90
2018-06-07T23:48:54.402Z,31.87
2018-06-07T23:51:22.585Z,27.60
2018-06-07T23:53:50.545Z,28.70
2018-06-07T23:56:20.055Z,27.00
2018-06-07T23:58:47.978Z,28.00
